Terminal Aerodrome Forecast
Issued by NWS

Home | Current Version | Previous Version | Text Only | Print | Product List | Glossary On
Versions: 1 2 3 4 5 6 7 8 9 10 11 12 13 14 15
000
FTUS44 KTSA 061059 AAB
TAFRVS
TAF AMD
KRVS 061059Z 0611/0706 00000KT P6SM SCT250
     FM061600 18007KT P6SM SCT250
     FM070100 18003KT P6SM SCT250=

USA.gov is the U.S. government's official web portal to all federal, state and local government web resources and services.